createdAt,value
2022-10-04T00:00:27.419Z,4.60
2022-10-04T00:02:55.182Z,5.07
2022-10-04T00:05:25.433Z,5.00
2022-10-04T00:07:57.638Z,5.17
2022-10-04T00:10:29.698Z,4.93
2022-10-04T00:12:59.343Z,4.63
2022-10-04T00:15:27.402Z,4.80
2022-10-04T00:18:15.258Z,5.00
2022-10-04T00:20:48.263Z,4.97
2022-10-04T00:23:35.464Z,5.00
2022-10-04T00:26:10.896Z,5.00
2022-10-04T00:28:37.556Z,4.87
2022-10-04T00:31:10.236Z,4.33
2022-10-04T00:33:46.082Z,5.57
2022-10-04T00:36:25.024Z,4.60
2022-10-04T00:39:07.491Z,4.87
2022-10-04T00:41:49.536Z,4.57
2022-10-04T00:44:21.519Z,4.90
2022-10-04T00:46:48.721Z,4.70
2022-10-04T00:49:16.324Z,4.83
2022-10-04T00:51:46.633Z,4.93
2022-10-04T00:54:17.399Z,4.57
2022-10-04T00:56:57.717Z,4.67
2022-10-04T00:59:43.182Z,4.20
2022-10-04T01:02:10.708Z,4.73
2022-10-04T01:04:58.104Z,4.50
2022-10-04T01:07:32.241Z,4.60
2022-10-04T01:10:19.625Z,4.60
2022-10-04T01:12:54.675Z,4.30
2022-10-04T01:15:44.326Z,4.53
2022-10-04T01:18:11.179Z,4.73
2022-10-04T01:20:49.651Z,4.50
2022-10-04T01:23:31.535Z,5.10
2022-10-04T01:25:59.190Z,4.57
2022-10-04T01:28:26.412Z,4.77
2022-10-04T01:30:53.490Z,4.20
2022-10-04T01:33:20.003Z,4.87
2022-10-04T01:35:47.281Z,4.50
2022-10-04T01:38:15.476Z,4.77
2022-10-04T01:40:46.493Z,4.70
2022-10-04T01:43:14.693Z,4.47
2022-10-04T01:45:44.619Z,5.00
2022-10-04T01:48:12.888Z,4.73
2022-10-04T01:51:00.357Z,4.83
2022-10-04T01:53:31.153Z,4.83
2022-10-04T01:56:10.655Z,4.63
2022-10-04T01:58:47.365Z,4.80
2022-10-04T02:01:16.419Z,4.30
2022-10-04T02:03:45.257Z,4.40
2022-10-04T02:06:13.364Z,4.73
2022-10-04T02:08:49.256Z,4.70
2022-10-04T02:11:21.375Z,5.27
2022-10-04T02:13:52.271Z,4.67
2022-10-04T02:16:20.353Z,4.47
2022-10-04T02:18:47.225Z,4.70
2022-10-04T02:21:15.226Z,4.70
2022-10-04T02:23:42.325Z,4.67
2022-10-04T02:26:09.891Z,4.37
2022-10-04T02:28:37.928Z,4.50
2022-10-04T02:31:24.461Z,4.40
2022-10-04T02:33:52.487Z,4.40
2022-10-04T02:36:21.151Z,5.37
2022-10-04T02:38:54.677Z,4.43
2022-10-04T02:41:32.627Z,4.40
2022-10-04T02:44:21.229Z,4.60
2022-10-04T02:46:54.062Z,4.30
2022-10-04T02:49:28.579Z,4.70
2022-10-04T02:52:02.215Z,4.73
2022-10-04T02:54:46.976Z,4.77
2022-10-04T02:57:19.266Z,5.80
2022-10-04T02:59:45.944Z,4.97
2022-10-04T03:02:29.123Z,5.00
2022-10-04T03:05:00.185Z,4.60
2022-10-04T03:07:27.049Z,4.83
2022-10-04T03:09:53.802Z,4.20
2022-10-04T03:12:22.204Z,4.43
2022-10-04T03:14:48.825Z,4.90
2022-10-04T03:17:16.381Z,4.60
2022-10-04T03:19:43.812Z,4.50
2022-10-04T03:22:11.382Z,4.50
2022-10-04T03:24:39.944Z,4.07
2022-10-04T03:27:08.637Z,4.30
2022-10-04T03:29:36.439Z,4.73
2022-10-04T03:32:04.271Z,3.97
2022-10-04T03:34:36.138Z,4.30
2022-10-04T03:37:07.387Z,4.47
2022-10-04T03:39:37.167Z,4.90
2022-10-04T03:42:25.010Z,4.77
2022-10-04T03:44:54.118Z,4.33
2022-10-04T03:47:22.591Z,4.80
2022-10-04T03:49:50.945Z,4.70
2022-10-04T03:52:20.480Z,4.60
2022-10-04T03:54:47.719Z,4.70
2022-10-04T03:57:14.414Z,3.80
2022-10-04T03:59:43.147Z,5.00
2022-10-04T04:02:22.558Z,5.00
2022-10-04T04:04:55.325Z,4.40
2022-10-04T04:07:28.291Z,4.47
2022-10-04T04:10:01.035Z,4.40
2022-10-04T04:12:43.897Z,4.83
2022-10-04T04:15:11.608Z,4.97
2022-10-04T04:17:41.767Z,4.50
2022-10-04T04:20:20.510Z,4.37
2022-10-04T04:22:50.991Z,4.60
2022-10-04T04:25:17.624Z,4.60
2022-10-04T04:27:46.718Z,4.87
2022-10-04T04:30:16.904Z,5.00
2022-10-04T04:32:49.361Z,4.57
2022-10-04T04:35:42.229Z,4.67
2022-10-04T04:38:16.869Z,5.00
2022-10-04T04:40:43.685Z,5.00
2022-10-04T04:43:13.710Z,4.40
2022-10-04T04:45:41.021Z,4.37
2022-10-04T04:48:07.584Z,4.97
2022-10-04T04:50:38.051Z,4.47
2022-10-04T04:53:25.245Z,4.37
2022-10-04T04:56:03.733Z,4.73
2022-10-04T04:58:47.698Z,4.20
2022-10-04T05:01:33.024Z,4.87
2022-10-04T05:04:15.640Z,4.80
2022-10-04T05:06:43.223Z,4.63
2022-10-04T05:09:31.467Z,4.97
2022-10-04T05:12:03.013Z,4.73
2022-10-04T05:14:31.331Z,4.83
2022-10-04T05:16:58.092Z,5.07
2022-10-04T05:19:27.532Z,4.97
2022-10-04T05:21:54.803Z,5.20
2022-10-04T05:24:31.772Z,5.33
2022-10-04T05:27:00.541Z,4.63
2022-10-04T05:29:28.134Z,4.90
2022-10-04T05:32:04.228Z,4.97
2022-10-04T05:34:36.602Z,5.17
2022-10-04T05:37:02.968Z,4.90
2022-10-04T05:39:34.823Z,5.13
2022-10-04T05:42:05.686Z,5.77
2022-10-04T05:44:37.604Z,5.53
2022-10-04T05:47:06.895Z,5.57
2022-10-04T05:49:36.699Z,6.27
2022-10-04T05:52:06.528Z,6.57
2022-10-04T05:54:35.611Z,5.70
2022-10-04T05:57:12.951Z,6.40
2022-10-04T05:59:58.460Z,6.67
2022-10-04T06:02:34.416Z,6.40
2022-10-04T06:05:14.172Z,7.10
2022-10-04T06:07:42.664Z,6.73
2022-10-04T06:10:27.967Z,6.60
2022-10-04T06:13:01.526Z,6.83
2022-10-04T06:15:41.345Z,6.37
2022-10-04T06:18:11.564Z,6.77
2022-10-04T06:20:38.107Z,7.00
2022-10-04T06:23:11.026Z,6.77
2022-10-04T06:25:40.083Z,6.20
2022-10-04T06:28:06.543Z,6.27
2022-10-04T06:30:44.726Z,6.70
2022-10-04T06:33:14.268Z,7.20
2022-10-04T06:35:47.650Z,6.63
2022-10-04T06:38:23.610Z,6.73
2022-10-04T06:41:03.206Z,6.60
2022-10-04T06:44:06.945Z,6.33
2022-10-04T06:46:45.497Z,6.00
2022-10-04T06:49:29.416Z,6.23
2022-10-04T06:52:18.611Z,5.97
2022-10-04T06:55:03.868Z,5.63
2022-10-04T06:57:44.055Z,5.53
2022-10-04T07:00:21.979Z,5.77
2022-10-04T07:02:52.150Z,5.50
2022-10-04T07:05:18.706Z,5.30
2022-10-04T07:07:48.115Z,5.60
2022-10-04T07:10:26.626Z,5.17
2022-10-04T07:12:59.581Z,5.57
2022-10-04T07:15:29.598Z,5.13
2022-10-04T07:17:58.554Z,4.90
2022-10-04T07:20:34.006Z,5.37
2022-10-04T07:23:04.039Z,4.77
2022-10-04T07:25:34.271Z,4.90
2022-10-04T07:28:28.666Z,5.87
2022-10-04T07:31:05.075Z,5.63
2022-10-04T07:33:35.614Z,5.20
2022-10-04T07:36:09.780Z,5.73
2022-10-04T07:38:46.066Z,5.60
2022-10-04T07:41:19.889Z,5.27
2022-10-04T07:43:46.376Z,5.73
2022-10-04T07:46:37.790Z,5.63
2022-10-04T07:49:18.282Z,5.70
2022-10-04T07:51:46.603Z,6.33
2022-10-04T07:54:18.506Z,5.57
2022-10-04T07:57:12.541Z,5.10
2022-10-04T08:00:06.799Z,5.37
2022-10-04T08:02:46.692Z,6.20
2022-10-04T08:05:29.255Z,5.10
2022-10-04T08:08:00.183Z,5.50
2022-10-04T08:10:34.930Z,5.13
2022-10-04T08:13:20.591Z,5.47
2022-10-04T08:15:50.314Z,5.07
2022-10-04T08:18:39.850Z,5.37
2022-10-04T08:21:10.409Z,5.20
2022-10-04T08:23:40.974Z,4.53
2022-10-04T08:26:26.663Z,4.90
2022-10-04T08:29:19.117Z,5.27
2022-10-04T08:32:05.616Z,5.00
2022-10-04T08:34:43.265Z,4.93
2022-10-04T08:37:22.464Z,4.70
2022-10-04T08:40:15.344Z,5.20
2022-10-04T08:42:48.094Z,5.10
2022-10-04T08:45:24.614Z,4.70
2022-10-04T08:48:10.594Z,4.77
2022-10-04T08:50:56.768Z,5.10
2022-10-04T08:53:42.961Z,5.37
2022-10-04T08:56:13.251Z,5.30
2022-10-04T08:59:00.337Z,5.27
2022-10-04T09:01:39.703Z,5.33
2022-10-04T09:04:26.944Z,5.00
2022-10-04T09:06:59.724Z,5.07
2022-10-04T09:09:27.028Z,5.17
2022-10-04T09:12:10.473Z,4.87
2022-10-04T09:14:56.165Z,4.83
2022-10-04T09:17:41.329Z,4.50
2022-10-04T09:20:37.331Z,4.90
2022-10-04T09:23:15.919Z,4.87
2022-10-04T09:25:51.721Z,4.23
2022-10-04T09:28:37.499Z,4.60
2022-10-04T09:31:28.021Z,4.53
2022-10-04T09:33:59.451Z,4.30
2022-10-04T09:36:25.961Z,4.30
2022-10-04T09:39:18.357Z,4.53
2022-10-04T09:41:48.540Z,4.00
2022-10-04T09:44:27.182Z,4.17
2022-10-04T09:47:12.997Z,4.20
2022-10-04T09:49:51.668Z,3.93
2022-10-04T09:52:36.649Z,3.77
2022-10-04T09:55:07.937Z,4.13
2022-10-04T09:57:54.619Z,4.23
2022-10-04T10:00:26.411Z,4.20
2022-10-04T10:03:14.776Z,4.20
2022-10-04T10:05:45.220Z,3.87
2022-10-04T10:08:30.583Z,3.70
2022-10-04T10:11:15.934Z,3.97
2022-10-04T10:13:57.392Z,4.20
2022-10-04T10:16:40.876Z,3.80
2022-10-04T10:19:33.198Z,3.53
2022-10-04T10:22:10.858Z,3.93
2022-10-04T10:24:47.708Z,3.87
2022-10-04T10:27:30.891Z,3.67
2022-10-04T10:29:59.368Z,3.70
2022-10-04T10:32:36.136Z,3.73
2022-10-04T10:35:09.433Z,3.20
2022-10-04T10:37:45.812Z,3.20
2022-10-04T10:40:28.666Z,3.70
2022-10-04T10:43:15.627Z,3.87
2022-10-04T10:45:47.436Z,3.80
2022-10-04T10:48:17.894Z,3.03
2022-10-04T10:51:00.467Z,2.80
2022-10-04T10:53:53.941Z,3.23
2022-10-04T10:56:39.976Z,3.67
2022-10-04T10:59:33.200Z,3.10
2022-10-04T11:02:18.044Z,3.47
2022-10-04T11:05:04.048Z,3.57
2022-10-04T11:07:51.730Z,3.50
2022-10-04T11:10:18.147Z,3.10
2022-10-04T11:12:54.750Z,3.10
2022-10-04T11:15:39.526Z,3.30
2022-10-04T11:18:24.887Z,3.00
2022-10-04T11:21:00.505Z,3.33
2022-10-04T11:23:56.730Z,3.00
2022-10-04T11:26:26.342Z,2.97
2022-10-04T11:29:00.398Z,3.00
2022-10-04T11:31:59.814Z,3.07
2022-10-04T11:34:37.451Z,2.97
2022-10-04T11:37:04.923Z,2.80
2022-10-04T11:39:44.494Z,2.80
2022-10-04T11:42:20.411Z,2.83
2022-10-04T11:45:02.506Z,2.83
2022-10-04T11:47:41.415Z,2.83
2022-10-04T11:50:26.730Z,2.63
2022-10-04T11:53:13.934Z,2.70
2022-10-04T11:55:54.428Z,2.90
2022-10-04T11:58:28.590Z,2.87
2022-10-04T12:01:02.646Z,2.60
2022-10-04T12:03:48.292Z,2.70
2022-10-04T12:06:35.831Z,2.57
2022-10-04T12:09:09.124Z,2.90
2022-10-04T12:12:00.749Z,2.80
2022-10-04T12:14:45.789Z,2.57
2022-10-04T12:17:33.607Z,2.70
2022-10-04T12:20:18.505Z,2.80
2022-10-04T12:23:06.457Z,3.20
2022-10-04T12:25:58.698Z,2.80
2022-10-04T12:28:25.478Z,2.73
2022-10-04T12:31:01.191Z,2.57
2022-10-04T12:33:31.196Z,2.87
2022-10-04T12:36:00.697Z,3.00
2022-10-04T12:38:38.713Z,2.73
2022-10-04T12:41:34.790Z,2.70
2022-10-04T12:44:21.594Z,2.43
2022-10-04T12:46:48.951Z,2.37
2022-10-04T12:49:37.150Z,2.80
2022-10-04T12:52:27.704Z,2.73
2022-10-04T12:55:03.494Z,2.83
2022-10-04T12:57:56.225Z,2.40
2022-10-04T13:00:23.979Z,2.43
2022-10-04T13:03:13.607Z,2.53
2022-10-04T13:05:41.548Z,2.63
2022-10-04T13:08:08.446Z,2.50
2022-10-04T13:10:53.483Z,2.70
2022-10-04T13:13:23.401Z,2.77
2022-10-04T13:18:56.732Z,2.80
2022-10-04T13:21:23.252Z,2.53
2022-10-04T13:24:01.975Z,2.37
2022-10-04T13:26:33.231Z,2.33
2022-10-04T13:29:15.369Z,2.97
2022-10-04T13:31:53.742Z,2.40
2022-10-04T13:34:25.927Z,2.50
2022-10-04T13:37:11.195Z,2.50
2022-10-04T13:40:03.676Z,2.70
2022-10-04T13:42:49.266Z,2.40
2022-10-04T13:45:19.059Z,2.70
2022-10-04T13:47:45.492Z,2.67
2022-10-04T13:50:15.709Z,2.43
2022-10-04T13:53:10.086Z,2.60
2022-10-04T13:56:10.700Z,2.47
2022-10-04T13:58:40.277Z,2.80
2022-10-04T14:01:19.552Z,2.30
2022-10-04T14:03:49.054Z,2.50
2022-10-04T14:06:18.656Z,2.50
2022-10-04T14:08:48.387Z,2.10
2022-10-04T14:11:21.953Z,2.40
2022-10-04T14:13:50.785Z,2.67
2022-10-04T14:16:36.457Z,2.40
2022-10-04T14:19:06.776Z,2.50
2022-10-04T14:21:41.302Z,2.60
2022-10-04T14:24:46.961Z,2.40
2022-10-04T14:27:20.431Z,2.30
2022-10-04T14:30:01.263Z,2.40
2022-10-04T14:32:47.736Z,2.80
2022-10-04T14:35:18.629Z,2.20
2022-10-04T14:37:45.728Z,2.57
2022-10-04T14:40:15.387Z,2.60
2022-10-04T14:42:59.368Z,2.47
2022-10-04T14:45:32.896Z,2.33
2022-10-04T14:48:19.579Z,2.13
2022-10-04T14:50:50.077Z,2.77
2022-10-04T14:53:23.229Z,2.57
2022-10-04T14:56:09.320Z,2.60
2022-10-04T14:58:50.264Z,2.70
2022-10-04T15:01:21.458Z,2.47
2022-10-04T15:03:48.429Z,2.53
2022-10-04T15:06:19.787Z,2.47
2022-10-04T15:08:47.096Z,2.40
2022-10-04T15:12:27.284Z,2.43
2022-10-04T15:14:59.825Z,2.30
2022-10-04T15:17:27.351Z,2.27
2022-10-04T15:20:03.403Z,2.67
2022-10-04T15:22:33.155Z,2.60
2022-10-04T15:25:00.101Z,2.77
2022-10-04T15:27:32.750Z,2.70
2022-10-04T15:30:19.516Z,2.33
2022-10-04T15:32:53.771Z,2.20
2022-10-04T15:35:35.307Z,2.30
2022-10-04T15:38:14.201Z,2.40
2022-10-04T15:41:03.295Z,2.33
2022-10-04T15:43:54.106Z,2.10
2022-10-04T15:46:43.085Z,2.10
2022-10-04T15:49:18.123Z,2.40
2022-10-04T15:51:50.837Z,2.20
2022-10-04T15:54:21.438Z,2.30
2022-10-04T15:57:01.694Z,2.17
2022-10-04T15:59:35.360Z,2.30
2022-10-04T16:02:31.942Z,2.33
2022-10-04T16:05:22.567Z,2.33
2022-10-04T16:08:01.517Z,2.33
2022-10-04T16:10:55.387Z,2.10
2022-10-04T16:13:35.433Z,2.10
2022-10-04T16:16:31.941Z,2.50
2022-10-04T16:19:12.345Z,2.20
2022-10-04T16:22:08.757Z,2.40
2022-10-04T16:24:43.268Z,2.80
2022-10-04T16:27:22.591Z,2.60
2022-10-04T16:30:22.132Z,2.70
2022-10-04T16:33:01.228Z,2.97
2022-10-04T16:35:37.804Z,2.60
2022-10-04T16:38:08.419Z,2.77
2022-10-04T16:41:10.841Z,2.50
2022-10-04T16:43:39.554Z,2.73
2022-10-04T16:46:21.401Z,2.80
2022-10-04T16:48:53.593Z,2.50
2022-10-04T16:51:46.912Z,3.10
2022-10-04T16:54:32.634Z,2.80
2022-10-04T16:57:01.125Z,2.67
2022-10-04T16:59:41.996Z,2.73
2022-10-04T17:02:25.822Z,3.00
2022-10-04T17:05:11.934Z,2.90
2022-10-04T17:08:02.682Z,2.47
2022-10-04T17:10:29.223Z,2.60
2022-10-04T17:13:01.285Z,3.00
2022-10-04T17:15:28.787Z,2.97
2022-10-04T17:17:55.260Z,3.00
2022-10-04T17:20:46.094Z,3.63
2022-10-04T17:23:25.044Z,3.17
2022-10-04T17:26:10.619Z,2.93
2022-10-04T17:28:56.531Z,2.93
2022-10-04T17:31:32.323Z,2.77
2022-10-04T17:34:12.874Z,2.90
2022-10-04T17:36:41.279Z,2.97
2022-10-04T17:39:08.033Z,2.80
2022-10-04T17:41:51.263Z,2.97
2022-10-04T17:44:18.228Z,3.13
2022-10-04T17:47:00.735Z,2.77
2022-10-04T17:49:46.932Z,2.50
2022-10-04T17:52:35.212Z,2.63
2022-10-04T17:55:18.623Z,2.73
2022-10-04T17:58:12.335Z,2.60
2022-10-04T18:00:51.441Z,2.40
2022-10-04T18:03:20.940Z,2.40
2022-10-04T18:05:47.531Z,2.77
2022-10-04T18:08:14.066Z,2.97
2022-10-04T18:10:51.411Z,2.80
2022-10-04T18:13:21.073Z,2.60
2022-10-04T18:15:55.931Z,2.10
2022-10-04T18:18:25.792Z,2.13
2022-10-04T18:20:52.352Z,2.60
2022-10-04T18:23:25.652Z,2.43
2022-10-04T18:25:56.491Z,2.07
2022-10-04T18:28:23.332Z,2.20
2022-10-04T18:30:51.224Z,2.10
2022-10-04T18:33:26.091Z,2.20
2022-10-04T18:36:02.854Z,2.40
2022-10-04T18:38:30.395Z,2.00
2022-10-04T18:41:13.327Z,2.10
2022-10-04T18:43:58.279Z,2.10
2022-10-04T18:46:25.400Z,2.47
2022-10-04T18:48:53.862Z,2.00
2022-10-04T18:51:30.499Z,2.30
2022-10-04T18:54:01.350Z,2.40
2022-10-04T18:56:33.215Z,2.20
2022-10-04T18:59:35.853Z,2.60
2022-10-04T19:02:12.353Z,2.77
2022-10-04T19:05:08.904Z,2.63
2022-10-04T19:07:40.052Z,2.53
2022-10-04T19:10:07.445Z,2.67
2022-10-04T19:12:46.066Z,2.87
2022-10-04T19:15:19.856Z,3.00
2022-10-04T19:17:54.156Z,3.20
2022-10-04T19:20:20.874Z,3.07
2022-10-04T19:22:53.926Z,3.13
2022-10-04T19:25:22.425Z,2.70
2022-10-04T19:27:50.091Z,2.90
2022-10-04T19:30:20.016Z,2.60
2022-10-04T19:33:06.906Z,2.67
2022-10-04T19:35:37.229Z,2.47
2022-10-04T19:38:20.122Z,2.50
2022-10-04T19:40:50.355Z,2.57
2022-10-04T19:43:20.773Z,2.63
2022-10-04T19:45:51.773Z,3.10
2022-10-04T19:48:24.204Z,3.20
2022-10-04T19:51:03.743Z,3.30
2022-10-04T19:53:37.319Z,3.43
2022-10-04T19:56:08.089Z,3.10
2022-10-04T19:58:41.484Z,2.93
2022-10-04T20:01:29.706Z,3.27
2022-10-04T20:04:19.377Z,2.90
2022-10-04T20:07:02.014Z,3.60
2022-10-04T20:09:45.364Z,3.10
2022-10-04T20:12:33.559Z,3.07
2022-10-04T20:15:26.523Z,3.30
2022-10-04T20:17:56.723Z,3.30
2022-10-04T20:20:42.438Z,3.20
2022-10-04T20:23:33.944Z,3.43
2022-10-04T20:26:10.924Z,3.80
2022-10-04T20:28:42.271Z,3.53
2022-10-04T20:31:34.376Z,3.73
2022-10-04T20:34:52.916Z,3.50
2022-10-04T20:37:44.318Z,4.03
2022-10-04T20:40:27.217Z,4.43
2022-10-04T20:43:22.785Z,3.63
2022-10-04T20:46:05.976Z,3.73
2022-10-04T20:48:37.558Z,3.40
2022-10-04T20:51:10.047Z,4.13
2022-10-04T20:53:42.648Z,4.00
2022-10-04T20:56:13.180Z,3.80
2022-10-04T20:58:45.799Z,3.70
2022-10-04T21:01:40.602Z,4.10
2022-10-04T21:04:16.006Z,3.80
2022-10-04T21:07:00.293Z,4.63
2022-10-04T21:09:31.291Z,4.23
2022-10-04T21:12:00.435Z,4.47
2022-10-04T21:14:28.007Z,4.63
2022-10-04T21:17:00.064Z,4.50
2022-10-04T21:19:32.263Z,4.20
2022-10-04T21:21:58.821Z,4.37
2022-10-04T21:24:36.993Z,4.50
2022-10-04T21:27:04.588Z,4.00
2022-10-04T21:29:31.509Z,3.93
2022-10-04T21:31:59.786Z,5.03
2022-10-04T21:34:51.981Z,4.43
2022-10-04T21:37:17.018Z,4.97
2022-10-04T21:39:43.915Z,4.73
2022-10-04T21:42:10.697Z,4.90
2022-10-04T21:44:37.417Z,4.90
2022-10-04T21:47:03.930Z,4.90
2022-10-04T21:49:30.395Z,5.20
2022-10-04T21:51:57.048Z,5.57
2022-10-04T21:54:23.465Z,5.07
2022-10-04T21:56:49.994Z,5.17
2022-10-04T21:59:16.412Z,5.30
2022-10-04T22:01:42.906Z,5.20
2022-10-04T22:04:09.450Z,5.07
2022-10-04T22:06:36.092Z,4.90
2022-10-04T22:09:02.654Z,5.07
2022-10-04T22:11:30.224Z,5.67
2022-10-04T22:13:57.069Z,5.53
2022-10-04T22:16:23.782Z,5.60
2022-10-04T22:18:50.233Z,5.60
2022-10-04T22:21:16.715Z,4.93
2022-10-04T22:23:43.986Z,5.53
2022-10-04T22:26:12.144Z,5.17
2022-10-04T22:28:46.739Z,5.50
2022-10-04T22:31:14.459Z,5.60
2022-10-04T22:33:42.241Z,6.13
2022-10-04T22:36:23.775Z,5.47
2022-10-04T22:39:11.032Z,5.50
2022-10-04T22:41:56.416Z,5.27
2022-10-04T22:44:28.556Z,5.23
2022-10-04T22:46:56.351Z,5.33
2022-10-04T22:49:29.732Z,5.40
2022-10-04T22:51:57.533Z,5.30
2022-10-04T22:54:25.301Z,5.17
2022-10-04T22:56:53.198Z,4.87
2022-10-04T22:59:21.726Z,5.47
2022-10-04T23:01:48.673Z,5.23
2022-10-04T23:04:18.623Z,5.40
2022-10-04T23:06:46.598Z,5.20
2022-10-04T23:09:13.751Z,5.67
2022-10-04T23:11:40.657Z,5.57
2022-10-04T23:14:07.459Z,4.80
2022-10-04T23:16:34.655Z,5.20
2022-10-04T23:19:10.857Z,5.00
2022-10-04T23:21:39.125Z,4.83
2022-10-04T23:24:14.449Z,4.87
2022-10-04T23:26:42.255Z,4.67
2022-10-04T23:29:17.677Z,5.40
2022-10-04T23:31:49.674Z,5.30
2022-10-04T23:34:19.741Z,5.03
2022-10-04T23:36:48.233Z,5.50
2022-10-04T23:39:21.809Z,5.23
2022-10-04T23:41:53.784Z,4.80
2022-10-04T23:44:23.054Z,5.10
2022-10-04T23:46:49.723Z,5.10
2022-10-04T23:49:17.330Z,5.13
2022-10-04T23:51:44.814Z,4.97
2022-10-04T23:54:20.691Z,6.03
2022-10-04T23:56:47.984Z,5.10
2022-10-04T23:59:17.442Z,5.07
